createdAt,value
2018-08-16T00:00:16.820Z,8.87
2018-08-16T00:02:50.093Z,8.73
2018-08-16T00:05:23.435Z,9.40
2018-08-16T00:07:56.232Z,9.03
2018-08-16T00:10:28.775Z,9.17
2018-08-16T00:13:01.693Z,9.17
2018-08-16T00:15:34.166Z,9.57
2018-08-16T00:18:06.707Z,8.90
2018-08-16T00:20:39.168Z,8.97
2018-08-16T00:23:12.094Z,8.57
2018-08-16T00:25:44.817Z,9.23
2018-08-16T00:28:17.538Z,8.90
2018-08-16T00:30:50.007Z,9.17
2018-08-16T00:33:22.701Z,8.80
2018-08-16T00:35:55.095Z,8.90
2018-08-16T00:38:28.108Z,8.77
2018-08-16T00:41:00.740Z,8.63
2018-08-16T00:43:33.464Z,10.03
2018-08-16T00:46:06.187Z,8.67
2018-08-16T00:48:38.639Z,9.27
2018-08-16T00:51:11.060Z,8.77
2018-08-16T00:53:43.479Z,9.07
2018-08-16T00:56:15.893Z,9.17
2018-08-16T00:58:48.328Z,8.80
2018-08-16T01:01:20.742Z,9.20
2018-08-16T01:03:53.255Z,8.90
2018-08-16T01:06:25.650Z,9.23
2018-08-16T01:08:58.162Z,9.07
2018-08-16T01:11:30.590Z,11.27
2018-08-16T01:14:03.586Z,12.33
2018-08-16T01:16:36.118Z,11.60
2018-08-16T01:19:08.503Z,14.93
2018-08-16T01:21:40.940Z,15.23
2018-08-16T01:24:13.354Z,15.00
2018-08-16T01:26:45.867Z,14.37
2018-08-16T01:29:19.595Z,13.40
2018-08-16T01:31:52.032Z,15.03
2018-08-16T01:34:24.517Z,13.57
2018-08-16T01:36:57.177Z,12.80
2018-08-16T01:39:29.590Z,13.83
2018-08-16T01:42:02.062Z,14.13
2018-08-16T01:44:34.437Z,13.53
2018-08-16T01:47:06.960Z,13.70
2018-08-16T01:49:39.399Z,14.00
2018-08-16T01:52:11.818Z,14.80
2018-08-16T01:54:44.199Z,12.67
2018-08-16T01:57:16.847Z,13.93
2018-08-16T01:59:49.220Z,13.57
2018-08-16T02:02:21.628Z,13.00
2018-08-16T02:04:54.031Z,10.10
2018-08-16T02:07:26.487Z,11.13
2018-08-16T02:09:58.975Z,11.20
2018-08-16T02:12:31.373Z,11.80
2018-08-16T02:15:06.182Z,11.53
2018-08-16T02:17:38.693Z,11.87
2018-08-16T02:20:12.833Z,11.10
2018-08-16T02:22:45.243Z,11.30
2018-08-16T02:25:17.655Z,11.97
2018-08-16T02:27:50.128Z,11.23
2018-08-16T02:30:22.558Z,11.30
2018-08-16T02:32:55.011Z,11.23
2018-08-16T02:35:27.444Z,10.73
2018-08-16T02:37:59.833Z,11.03
2018-08-16T02:40:32.296Z,11.33
2018-08-16T02:43:04.685Z,11.00
2018-08-16T02:45:37.080Z,11.30
2018-08-16T02:48:09.532Z,11.07
2018-08-16T02:50:41.946Z,11.57
2018-08-16T02:53:14.464Z,11.10
2018-08-16T02:55:46.927Z,11.07
2018-08-16T02:58:19.516Z,11.60
2018-08-16T03:00:51.993Z,10.87
2018-08-16T03:03:24.398Z,11.33
2018-08-16T03:05:56.823Z,10.30
2018-08-16T03:08:29.272Z,11.07
2018-08-16T03:11:01.768Z,11.87
2018-08-16T03:13:34.170Z,12.30
2018-08-16T03:16:06.787Z,12.37
2018-08-16T03:18:39.218Z,12.20
2018-08-16T03:21:11.623Z,11.67
2018-08-16T03:23:44.068Z,11.50
2018-08-16T03:26:16.494Z,11.93
2018-08-16T03:28:48.895Z,12.13
2018-08-16T03:31:23.995Z,12.40
2018-08-16T03:33:56.407Z,11.70
2018-08-16T03:36:28.841Z,12.20
2018-08-16T03:39:01.287Z,11.97
2018-08-16T03:41:33.807Z,11.80
2018-08-16T03:44:06.875Z,11.20
2018-08-16T03:46:39.325Z,11.00
2018-08-16T03:49:11.748Z,11.30
2018-08-16T03:51:44.261Z,11.23
2018-08-16T03:54:16.687Z,11.93
2018-08-16T03:56:49.116Z,11.80
2018-08-16T03:59:21.589Z,11.53
2018-08-16T04:01:54.050Z,11.13
2018-08-16T04:04:26.483Z,11.13
2018-08-16T04:06:58.919Z,10.57
2018-08-16T04:09:31.272Z,11.17
2018-08-16T04:12:04.228Z,10.80
2018-08-16T04:14:36.678Z,11.70
2018-08-16T04:17:09.102Z,11.43
2018-08-16T04:19:42.212Z,10.53
2018-08-16T04:22:14.578Z,10.30
2018-08-16T04:24:46.982Z,10.67
2018-08-16T04:27:19.375Z,10.57
2018-08-16T04:29:51.762Z,10.80
2018-08-16T04:32:24.390Z,10.70
2018-08-16T04:34:57.104Z,10.30
2018-08-16T04:37:29.486Z,10.13
2018-08-16T04:40:01.969Z,10.77
2018-08-16T04:42:34.364Z,10.37
2018-08-16T04:45:07.610Z,10.90
2018-08-16T04:47:39.970Z,10.63
2018-08-16T04:50:12.935Z,10.37
2018-08-16T04:52:46.327Z,10.33
2018-08-16T04:55:18.842Z,10.50
2018-08-16T04:57:51.319Z,10.57
2018-08-16T05:00:23.730Z,10.87
2018-08-16T05:02:56.141Z,10.73
2018-08-16T05:05:28.567Z,10.17
2018-08-16T05:08:00.969Z,10.93
2018-08-16T05:10:33.574Z,10.80
2018-08-16T05:13:05.994Z,10.30
2018-08-16T05:15:38.704Z,11.07
2018-08-16T05:18:11.109Z,9.80
2018-08-16T05:20:43.552Z,10.20
2018-08-16T05:23:15.983Z,10.47
2018-08-16T05:25:48.404Z,11.20
2018-08-16T05:28:20.824Z,10.00
2018-08-16T05:30:53.216Z,10.43
2018-08-16T05:33:25.686Z,11.20
2018-08-16T05:35:58.075Z,10.77
2018-08-16T05:38:30.619Z,10.33
2018-08-16T05:41:03.099Z,9.73
2018-08-16T05:43:35.703Z,9.80
2018-08-16T05:46:08.489Z,9.83
2018-08-16T05:48:40.945Z,10.20
2018-08-16T05:51:13.395Z,10.50
2018-08-16T05:53:47.093Z,10.33
2018-08-16T05:56:19.465Z,9.07
2018-08-16T05:58:51.943Z,9.33
2018-08-16T06:01:24.466Z,8.87
2018-08-16T06:03:56.915Z,9.20
2018-08-16T06:06:29.367Z,9.70
2018-08-16T06:09:01.829Z,8.30
2018-08-16T06:11:34.453Z,9.27
2018-08-16T06:14:08.442Z,8.33
2018-08-16T06:16:40.883Z,8.20
2018-08-16T06:19:13.357Z,7.57
2018-08-16T06:21:45.811Z,7.27
2018-08-16T06:24:18.448Z,7.50
2018-08-16T06:26:50.988Z,7.70
2018-08-16T06:29:23.460Z,7.53
2018-08-16T06:31:55.943Z,7.00
2018-08-16T06:34:28.466Z,7.37
2018-08-16T06:37:00.963Z,7.37
2018-08-16T06:39:33.604Z,7.03
2018-08-16T06:42:06.312Z,6.80
2018-08-16T06:44:38.848Z,6.80
2018-08-16T06:47:14.765Z,6.60
2018-08-16T06:49:47.373Z,5.87
2018-08-16T06:52:20.548Z,6.87
2018-08-16T06:54:53.227Z,6.73
2018-08-16T06:57:25.877Z,6.27
2018-08-16T06:59:58.450Z,5.70
2018-08-16T07:02:31.096Z,6.27
2018-08-16T07:05:04.378Z,6.10
2018-08-16T07:07:37.398Z,5.93
2018-08-16T07:10:11.383Z,6.07
2018-08-16T07:12:43.899Z,5.37
2018-08-16T07:15:16.363Z,5.30
2018-08-16T07:17:48.967Z,5.60
2018-08-16T07:20:21.436Z,5.90
2018-08-16T07:22:54.017Z,6.47
2018-08-16T07:25:26.479Z,6.10
2018-08-16T07:27:58.944Z,5.73
2018-08-16T07:30:31.594Z,5.93
2018-08-16T07:33:04.211Z,6.00
2018-08-16T07:35:36.651Z,5.80
2018-08-16T07:38:09.130Z,7.23
2018-08-16T07:40:41.857Z,18.67
2018-08-16T07:43:14.337Z,7.53
2018-08-16T07:45:47.143Z,7.70
2018-08-16T07:48:19.591Z,5.93
2018-08-16T07:50:52.171Z,6.70
2018-08-16T07:53:24.568Z,6.63
2018-08-16T07:55:57.117Z,6.27
2018-08-16T07:58:29.877Z,5.30
2018-08-16T08:01:02.226Z,5.87
2018-08-16T08:03:34.753Z,4.57
2018-08-16T08:06:07.349Z,5.80
2018-08-16T08:08:39.880Z,5.60
2018-08-16T08:11:12.368Z,5.13
2018-08-16T08:13:44.876Z,5.53
2018-08-16T08:16:19.445Z,5.33
2018-08-16T08:18:51.947Z,5.43
2018-08-16T08:21:24.795Z,4.83
2018-08-16T08:23:58.427Z,5.77
2018-08-16T08:26:30.969Z,5.50
2018-08-16T08:29:03.697Z,5.20
2018-08-16T08:31:36.175Z,4.93
2018-08-16T08:34:08.700Z,5.00
2018-08-16T08:36:52.602Z,5.33
2018-08-16T08:39:25.334Z,6.13
2018-08-16T08:41:57.789Z,5.30
2018-08-16T08:44:30.285Z,5.40
2018-08-16T08:47:02.828Z,5.20
2018-08-16T08:49:35.911Z,5.10
2018-08-16T08:52:08.638Z,4.60
2018-08-16T08:54:53.567Z,4.63
2018-08-16T08:57:32.433Z,5.97
2018-08-16T09:00:06.538Z,5.13
2018-08-16T09:02:39.002Z,7.30
2018-08-16T09:05:11.415Z,6.40
2018-08-16T09:07:43.968Z,6.07
2018-08-16T09:10:53.291Z,4.50
2018-08-16T09:13:38.149Z,4.73
2018-08-16T09:16:13.219Z,4.37
2018-08-16T09:18:46.025Z,4.30
2018-08-16T09:21:18.608Z,4.73
2018-08-16T09:23:51.427Z,4.50
2018-08-16T09:26:29.647Z,4.03
2018-08-16T09:29:06.613Z,4.00
2018-08-16T09:31:50.687Z,4.60
2018-08-16T09:34:24.634Z,4.37
2018-08-16T09:36:57.304Z,4.27
2018-08-16T09:39:29.987Z,4.10
2018-08-16T09:42:02.507Z,3.67
2018-08-16T09:44:35.126Z,4.10
2018-08-16T09:47:19.180Z,3.80
2018-08-16T09:49:52.212Z,3.50
2018-08-16T09:52:25.222Z,3.60
2018-08-16T09:54:58.086Z,3.70
2018-08-16T09:57:30.888Z,4.70
2018-08-16T10:00:03.830Z,4.53
2018-08-16T10:02:36.447Z,4.20
2018-08-16T10:05:09.167Z,4.47
2018-08-16T10:07:41.782Z,5.37
2018-08-16T10:10:14.444Z,3.60
2018-08-16T10:12:47.383Z,4.90
2018-08-16T10:15:20.167Z,5.03
2018-08-16T10:17:53.072Z,5.00
2018-08-16T10:20:25.936Z,4.30
2018-08-16T10:22:58.473Z,4.17
2018-08-16T10:25:31.254Z,4.63
2018-08-16T10:28:04.504Z,3.93
2018-08-16T10:30:37.676Z,3.80
2018-08-16T10:33:10.201Z,3.27
2018-08-16T10:35:43.217Z,3.73
2018-08-16T10:38:15.920Z,4.93
2018-08-16T10:40:48.576Z,3.77
2018-08-16T10:43:21.529Z,5.43
2018-08-16T10:45:54.224Z,4.00
2018-08-16T10:48:27.189Z,5.90
2018-08-16T10:51:00.058Z,7.00
2018-08-16T10:53:33.476Z,3.70
2018-08-16T10:56:06.084Z,4.50
2018-08-16T10:58:40.408Z,3.67
2018-08-16T11:01:13.598Z,3.50
2018-08-16T11:03:46.261Z,4.60
2018-08-16T11:06:21.612Z,5.30
2018-08-16T11:08:54.412Z,4.90
2018-08-16T11:11:26.978Z,4.60
2018-08-16T11:13:59.598Z,3.90
2018-08-16T11:16:32.244Z,3.97
2018-08-16T11:19:06.735Z,4.67
2018-08-16T11:21:39.920Z,5.00
2018-08-16T11:24:13.295Z,4.13
2018-08-16T11:26:45.952Z,4.03
2018-08-16T11:29:18.580Z,3.97
2018-08-16T11:31:51.315Z,3.50
2018-08-16T11:34:23.862Z,3.50
2018-08-16T11:36:56.469Z,3.67
2018-08-16T11:39:29.267Z,3.50
2018-08-16T11:42:03.150Z,3.40
2018-08-16T11:44:35.723Z,3.90
2018-08-16T11:47:08.346Z,4.00
2018-08-16T11:49:41.376Z,3.53
2018-08-16T11:52:14.068Z,4.63
2018-08-16T11:54:47.367Z,3.93
2018-08-16T11:57:20.084Z,3.83
2018-08-16T11:59:53.495Z,4.30
2018-08-16T12:02:26.415Z,4.17
2018-08-16T12:04:59.185Z,3.67
2018-08-16T12:07:31.879Z,3.93
2018-08-16T12:10:05.792Z,4.33
2018-08-16T12:12:38.367Z,3.57
2018-08-16T12:15:11.187Z,3.13
2018-08-16T12:17:43.910Z,5.43
2018-08-16T12:20:16.611Z,3.93
2018-08-16T12:22:49.230Z,5.93
2018-08-16T12:25:22.868Z,6.53
2018-08-16T12:27:55.601Z,4.47
2018-08-16T12:30:28.263Z,4.70
2018-08-16T12:33:01.339Z,3.67
2018-08-16T12:35:33.890Z,3.87
2018-08-16T12:38:06.386Z,3.60
2018-08-16T12:40:39.075Z,3.57
2018-08-16T12:43:11.776Z,3.57
2018-08-16T12:45:44.373Z,3.30
2018-08-16T12:48:17.157Z,4.10
2018-08-16T12:50:49.832Z,3.50
2018-08-16T12:53:22.411Z,4.10
2018-08-16T12:55:55.924Z,4.10
2018-08-16T12:58:28.994Z,3.73
2018-08-16T13:01:01.811Z,5.07
2018-08-16T13:03:34.432Z,3.47
2018-08-16T13:06:06.936Z,3.27
2018-08-16T13:08:39.409Z,3.80
2018-08-16T13:11:12.184Z,4.10
2018-08-16T13:16:42.371Z,3.60
2018-08-16T13:19:18.910Z,3.40
2018-08-16T13:21:58.289Z,3.87
2018-08-16T13:24:33.366Z,2.93
2018-08-16T13:27:06.288Z,4.63
2018-08-16T13:29:39.002Z,4.23
2018-08-16T13:32:11.815Z,5.43
2018-08-16T13:34:49.839Z,5.37
2018-08-16T13:37:22.652Z,4.37
2018-08-16T13:39:55.414Z,4.03
2018-08-16T13:42:28.118Z,4.47
2018-08-16T13:45:00.739Z,3.63
2018-08-16T13:47:33.490Z,3.67
2018-08-16T13:50:06.483Z,4.50
2018-08-16T13:52:39.050Z,5.13
2018-08-16T13:55:11.758Z,4.07
2018-08-16T13:57:44.298Z,3.90
2018-08-16T14:00:17.026Z,3.93
2018-08-16T14:02:49.592Z,4.07
2018-08-16T14:05:23.126Z,4.00
2018-08-16T14:07:56.102Z,3.90
2018-08-16T14:10:28.699Z,3.57
2018-08-16T14:13:01.311Z,3.60
2018-08-16T14:15:33.932Z,3.37
2018-08-16T14:18:06.439Z,3.20
2018-08-16T14:20:39.325Z,3.30
2018-08-16T14:23:11.722Z,3.40
2018-08-16T14:25:44.170Z,4.13
2018-08-16T14:28:16.763Z,5.57
2018-08-16T14:30:49.212Z,3.40
2018-08-16T14:33:21.657Z,13.13
2018-08-16T14:35:54.113Z,5.13
2018-08-16T14:38:26.523Z,3.93
2018-08-16T14:40:58.975Z,4.50
2018-08-16T14:43:31.539Z,4.10
2018-08-16T14:46:04.080Z,3.60
2018-08-16T14:48:36.561Z,3.57
2018-08-16T14:51:09.088Z,4.60
2018-08-16T14:53:41.901Z,5.80
2018-08-16T14:56:14.475Z,5.03
2018-08-16T14:58:47.006Z,4.30
2018-08-16T15:01:19.694Z,4.37
2018-08-16T15:03:52.299Z,6.80
2018-08-16T15:06:24.900Z,5.90
2018-08-16T15:08:57.331Z,4.17
2018-08-16T15:11:29.734Z,3.93
2018-08-16T15:14:02.277Z,3.87
2018-08-16T15:16:34.889Z,4.03
2018-08-16T15:19:07.588Z,3.70
2018-08-16T15:21:40.141Z,3.93
2018-08-16T15:24:15.704Z,3.97
2018-08-16T15:26:48.780Z,4.23
2018-08-16T15:29:21.376Z,4.10
2018-08-16T15:31:53.786Z,3.70
2018-08-16T15:34:26.290Z,4.00
2018-08-16T15:36:58.776Z,3.60
2018-08-16T15:39:31.313Z,4.23
2018-08-16T15:42:03.847Z,5.00
2018-08-16T15:44:36.413Z,4.70
2018-08-16T15:47:09.189Z,4.20
2018-08-16T15:49:41.663Z,4.43
2018-08-16T15:52:14.120Z,5.33
2018-08-16T15:54:46.564Z,5.07
2018-08-16T15:57:19.182Z,5.30
2018-08-16T15:59:51.612Z,4.97
2018-08-16T16:02:24.344Z,6.33
2018-08-16T16:04:56.735Z,17.37
2018-08-16T16:07:30.716Z,27.53
2018-08-16T16:10:04.135Z,5.60
2018-08-16T16:12:36.588Z,5.17
2018-08-16T16:15:09.498Z,8.47
2018-08-16T16:17:42.010Z,4.63
2018-08-16T16:20:14.442Z,7.73
2018-08-16T16:22:46.855Z,10.53
2018-08-16T16:25:19.297Z,5.73
2018-08-16T16:27:51.822Z,4.53
2018-08-16T16:30:24.259Z,8.27
2018-08-16T16:32:56.692Z,5.43
2018-08-16T16:35:29.142Z,5.50
2018-08-16T16:38:01.559Z,6.00
2018-08-16T16:40:35.609Z,6.83
2018-08-16T16:43:08.080Z,6.63
2018-08-16T16:45:40.531Z,5.40
2018-08-16T16:48:13.012Z,5.57
2018-08-16T16:50:45.476Z,6.00
2018-08-16T16:53:18.454Z,7.07
2018-08-16T16:55:51.017Z,7.77
2018-08-16T16:58:23.522Z,5.50
2018-08-16T17:00:56.655Z,5.27
2018-08-16T17:03:29.135Z,5.60
2018-08-16T17:06:01.589Z,5.27
2018-08-16T17:08:34.207Z,6.33
2018-08-16T17:11:06.625Z,4.47
2018-08-16T17:13:39.158Z,4.43
2018-08-16T17:16:11.641Z,4.90
2018-08-16T17:18:44.192Z,5.17
2018-08-16T17:21:17.207Z,4.30
2018-08-16T17:23:50.376Z,4.90
2018-08-16T17:26:22.839Z,5.03
2018-08-16T17:28:55.355Z,4.70
2018-08-16T17:31:27.797Z,4.80
2018-08-16T17:34:00.458Z,5.17
2018-08-16T17:36:34.629Z,5.43
2018-08-16T17:39:07.116Z,5.00
2018-08-16T17:41:39.862Z,5.37
2018-08-16T17:44:12.436Z,5.10
2018-08-16T17:46:45.227Z,5.37
2018-08-16T17:49:19.434Z,4.97
2018-08-16T17:51:52.163Z,5.17
2018-08-16T17:54:24.953Z,4.90
2018-08-16T17:56:57.804Z,5.10
2018-08-16T17:59:30.319Z,4.87
2018-08-16T18:02:02.767Z,4.77
2018-08-16T18:04:35.259Z,4.60
2018-08-16T18:07:07.938Z,4.83
2018-08-16T18:09:40.774Z,4.13
2018-08-16T18:12:13.247Z,4.50
2018-08-16T18:14:46.039Z,4.80
2018-08-16T18:17:18.438Z,5.00
2018-08-16T18:19:50.997Z,5.13
2018-08-16T18:22:23.670Z,4.30
2018-08-16T18:24:56.130Z,4.90
2018-08-16T18:27:28.625Z,4.37
2018-08-16T18:30:01.545Z,4.50
2018-08-16T18:32:34.099Z,5.40
2018-08-16T18:35:06.724Z,13.40
2018-08-16T18:37:39.194Z,8.20
2018-08-16T18:40:12.925Z,5.93
2018-08-16T18:42:45.268Z,6.47
2018-08-16T18:45:17.663Z,6.47
2018-08-16T18:47:50.041Z,5.80
2018-08-16T18:50:22.464Z,5.60
2018-08-16T18:52:54.859Z,5.40
2018-08-16T18:55:27.265Z,6.27
2018-08-16T18:57:59.709Z,6.37
2018-08-16T19:00:32.127Z,6.10
2018-08-16T19:03:04.915Z,5.47
2018-08-16T19:05:37.435Z,5.37
2018-08-16T19:08:10.033Z,5.67
2018-08-16T19:10:43.697Z,5.50
2018-08-16T19:13:16.090Z,5.40
2018-08-16T19:15:48.566Z,5.00
2018-08-16T19:18:21.137Z,5.03
2018-08-16T19:20:53.598Z,5.27
2018-08-16T19:23:26.003Z,5.47
2018-08-16T19:25:58.470Z,5.40
2018-08-16T19:28:30.914Z,5.00
2018-08-16T19:31:03.546Z,5.43
2018-08-16T19:33:35.962Z,5.43
2018-08-16T19:36:08.597Z,5.57
2018-08-16T19:38:41.412Z,6.00
2018-08-16T19:41:13.933Z,6.00
2018-08-16T19:43:46.557Z,6.03
2018-08-16T19:46:19.440Z,6.03
2018-08-16T19:48:51.919Z,6.00
2018-08-16T19:51:24.680Z,5.60
2018-08-16T19:53:57.869Z,6.33
2018-08-16T19:56:30.246Z,6.43
2018-08-16T19:59:02.676Z,5.37
2018-08-16T20:01:35.183Z,7.70
2018-08-16T20:04:07.662Z,5.83
2018-08-16T20:06:40.176Z,6.27
2018-08-16T20:09:12.559Z,6.40
2018-08-16T20:11:45.034Z,5.53
2018-08-16T20:14:17.506Z,6.17
2018-08-16T20:16:50.272Z,6.27
2018-08-16T20:19:23.158Z,5.93
2018-08-16T20:21:55.783Z,5.87
2018-08-16T20:24:28.420Z,5.93
2018-08-16T20:27:00.958Z,6.13
2018-08-16T20:29:33.647Z,7.33
2018-08-16T20:32:06.384Z,5.70
2018-08-16T20:34:39.269Z,7.20
2018-08-16T20:37:11.923Z,7.57
2018-08-16T20:39:44.673Z,6.10
2018-08-16T20:42:17.312Z,6.80
2018-08-16T20:44:50.000Z,5.97
2018-08-16T20:47:22.736Z,5.30
2018-08-16T20:49:55.135Z,5.70
2018-08-16T20:52:27.830Z,5.50
2018-08-16T20:55:00.182Z,6.00
2018-08-16T20:57:32.630Z,5.57
2018-08-16T21:00:06.722Z,6.10
2018-08-16T21:02:39.210Z,5.77
2018-08-16T21:05:11.926Z,5.90
2018-08-16T21:07:44.444Z,5.67
2018-08-16T21:10:17.014Z,5.73
2018-08-16T21:12:49.539Z,6.03
2018-08-16T21:15:21.882Z,5.70
2018-08-16T21:17:54.315Z,5.67
2018-08-16T21:20:26.777Z,6.20
2018-08-16T21:22:59.497Z,7.27
2018-08-16T21:25:31.974Z,5.77
2018-08-16T21:28:04.934Z,5.57
2018-08-16T21:30:37.405Z,14.60
2018-08-16T21:33:09.943Z,5.87
2018-08-16T21:35:43.152Z,5.30
2018-08-16T21:38:15.722Z,5.53
2018-08-16T21:40:48.147Z,5.40
2018-08-16T21:43:20.564Z,5.40
2018-08-16T21:45:53.530Z,5.93
2018-08-16T21:48:26.051Z,5.40
2018-08-16T21:50:58.785Z,5.90
2018-08-16T21:53:33.014Z,5.60
2018-08-16T21:56:07.580Z,5.97
2018-08-16T21:58:40.629Z,6.00
2018-08-16T22:01:13.538Z,6.00
2018-08-16T22:03:46.642Z,6.63
2018-08-16T22:06:31.025Z,7.87
2018-08-16T22:09:06.527Z,6.00
2018-08-16T22:11:39.668Z,6.03
2018-08-16T22:14:13.949Z,5.53
2018-08-16T22:16:47.660Z,5.70
2018-08-16T22:19:21.449Z,5.33
2018-08-16T22:21:54.411Z,5.67
2018-08-16T22:24:27.546Z,6.23
2018-08-16T22:27:00.299Z,5.50
2018-08-16T22:29:33.260Z,6.10
2018-08-16T22:32:06.678Z,4.97
2018-08-16T22:34:39.650Z,5.57
2018-08-16T22:37:12.350Z,5.23
2018-08-16T22:39:44.808Z,5.30
2018-08-16T22:42:17.767Z,5.10
2018-08-16T22:44:50.499Z,5.90
2018-08-16T22:47:23.074Z,6.27
2018-08-16T22:49:55.844Z,5.70
2018-08-16T22:52:28.520Z,6.37
2018-08-16T22:55:01.293Z,5.80
2018-08-16T22:57:33.890Z,5.30
2018-08-16T23:00:07.271Z,5.80
2018-08-16T23:02:41.010Z,5.57
2018-08-16T23:05:13.664Z,5.30
2018-08-16T23:07:46.308Z,5.47
2018-08-16T23:10:19.538Z,5.63
2018-08-16T23:12:52.811Z,5.23
2018-08-16T23:15:25.817Z,4.83
2018-08-16T23:17:58.361Z,5.20
2018-08-16T23:20:31.086Z,5.30
2018-08-16T23:23:03.575Z,5.37
2018-08-16T23:25:35.952Z,4.87
2018-08-16T23:28:09.197Z,5.30
2018-08-16T23:30:42.242Z,5.27
2018-08-16T23:33:14.876Z,5.17
2018-08-16T23:35:47.593Z,5.17
2018-08-16T23:38:20.664Z,5.17
2018-08-16T23:40:53.470Z,5.07
2018-08-16T23:43:26.215Z,5.10
2018-08-16T23:45:58.888Z,4.77
2018-08-16T23:48:31.943Z,4.40
2018-08-16T23:51:04.853Z,5.00
2018-08-16T23:53:37.284Z,4.70
2018-08-16T23:56:10.850Z,5.37
2018-08-16T23:58:43.630Z,4.93
